sensor_id;sensor_type;location;lat;lon;timestamp;P1;durP1;ratioP1;P2;durP2;ratioP2
41709;SDS011;59402;48.396;-4.472;2023-02-01T00:01:38;21.67;;;4.32;;
41709;SDS011;59402;48.396;-4.472;2023-02-01T00:04:04;18.80;;;4.35;;
41709;SDS011;59402;48.396;-4.472;2023-02-01T00:06:29;21.58;;;4.18;;
41709;SDS011;59402;48.396;-4.472;2023-02-01T00:08:55;25.20;;;4.07;;
41709;SDS011;59402;48.396;-4.472;2023-02-01T00:11:21;24.05;;;4.68;;
41709;SDS011;59402;48.396;-4.472;2023-02-01T00:13:48;21.80;;;4.00;;
41709;SDS011;59402;48.396;-4.472;2023-02-01T00:18:43;22.67;;;3.85;;
41709;SDS011;59402;48.396;-4.472;2023-02-01T00:21:10;24.20;;;4.47;;
41709;SDS011;59402;48.396;-4.472;2023-02-01T00:23:36;16.95;;;3.72;;
41709;SDS011;59402;48.396;-4.472;2023-02-01T00:26:04;25.13;;;4.45;;
41709;SDS011;59402;48.396;-4.472;2023-02-01T00:28:32;21.90;;;3.60;;
41709;SDS011;59402;48.396;-4.472;2023-02-01T00:30:58;19.02;;;4.18;;
41709;SDS011;59402;48.396;-4.472;2023-02-01T00:33:28;21.05;;;3.80;;
41709;SDS011;59402;48.396;-4.472;2023-02-01T00:35:58;16.13;;;3.88;;
41709;SDS011;59402;48.396;-4.472;2023-02-01T00:38:25;21.90;;;3.83;;
41709;SDS011;59402;48.396;-4.472;2023-02-01T00:40:51;23.58;;;4.88;;
41709;SDS011;59402;48.396;-4.472;2023-02-01T00:43:17;20.55;;;4.22;;
41709;SDS011;59402;48.396;-4.472;2023-02-01T00:45:44;22.05;;;4.00;;
41709;SDS011;59402;48.396;-4.472;2023-02-01T00:50:40;25.13;;;4.03;;
41709;SDS011;59402;48.396;-4.472;2023-02-01T00:53:09;20.90;;;4.00;;
41709;SDS011;59402;48.396;-4.472;2023-02-01T00:55:35;19.88;;;3.90;;
41709;SDS011;59402;48.396;-4.472;2023-02-01T00:58:01;22.15;;;4.15;;
41709;SDS011;59402;48.396;-4.472;2023-02-01T01:00:27;20.05;;;3.95;;
41709;SDS011;59402;48.396;-4.472;2023-02-01T01:02:53;15.77;;;3.63;;
41709;SDS011;59402;48.396;-4.472;2023-02-01T01:05:19;24.05;;;3.80;;
41709;SDS011;59402;48.396;-4.472;2023-02-01T01:07:45;24.88;;;4.28;;
41709;SDS011;59402;48.396;-4.472;2023-02-01T01:10:11;24.30;;;3.92;;
41709;SDS011;59402;48.396;-4.472;2023-02-01T01:12:37;17.85;;;3.65;;
41709;SDS011;59402;48.396;-4.472;2023-02-01T01:15:03;18.90;;;3.50;;
41709;SDS011;59402;48.396;-4.472;2023-02-01T01:17:30;25.42;;;4.50;;
41709;SDS011;59402;48.396;-4.472;2023-02-01T01:22:22;20.40;;;3.33;;
41709;SDS011;59402;48.396;-4.472;2023-02-01T01:24:48;16.65;;;3.35;;
41709;SDS011;59402;48.396;-4.472;2023-02-01T01:27:13;20.45;;;3.65;;
41709;SDS011;59402;48.396;-4.472;2023-02-01T01:29:39;20.45;;;3.92;;
41709;SDS011;59402;48.396;-4.472;2023-02-01T01:32:05;18.58;;;3.67;;
41709;SDS011;59402;48.396;-4.472;2023-02-01T01:34:31;18.50;;;3.45;;
41709;SDS011;59402;48.396;-4.472;2023-02-01T01:36:59;20.98;;;3.72;;
41709;SDS011;59402;48.396;-4.472;2023-02-01T01:39:25;17.02;;;3.78;;
41709;SDS011;59402;48.396;-4.472;2023-02-01T01:41:50;22.88;;;3.30;;
41709;SDS011;59402;48.396;-4.472;2023-02-01T01:47:21;22.83;;;3.97;;
41709;SDS011;59402;48.396;-4.472;2023-02-01T01:49:47;19.35;;;3.53;;
41709;SDS011;59402;48.396;-4.472;2023-02-01T01:52:13;21.73;;;4.40;;
41709;SDS011;59402;48.396;-4.472;2023-02-01T01:54:43;20.88;;;3.83;;
41709;SDS011;59402;48.396;-4.472;2023-02-01T01:57:14;18.17;;;3.58;;
41709;SDS011;59402;48.396;-4.472;2023-02-01T02:00:06;16.45;;;3.33;;
41709;SDS011;59402;48.396;-4.472;2023-02-01T02:02:40;19.60;;;3.92;;
41709;SDS011;59402;48.396;-4.472;2023-02-01T02:05:07;24.13;;;3.67;;
41709;SDS011;59402;48.396;-4.472;2023-02-01T02:07:35;17.88;;;3.30;;
41709;SDS011;59402;48.396;-4.472;2023-02-01T02:10:03;28.75;;;5.18;;
41709;SDS011;59402;48.396;-4.472;2023-02-01T02:12:31;22.58;;;3.72;;
41709;SDS011;59402;48.396;-4.472;2023-02-01T02:14:57;22.02;;;4.22;;
41709;SDS011;59402;48.396;-4.472;2023-02-01T02:17:29;20.25;;;3.88;;
41709;SDS011;59402;48.396;-4.472;2023-02-01T02:25:44;23.40;;;3.55;;
41709;SDS011;59402;48.396;-4.472;2023-02-01T02:34:14;19.42;;;3.40;;
41709;SDS011;59402;48.396;-4.472;2023-02-01T02:39:36;19.25;;;4.50;;
41709;SDS011;59402;48.396;-4.472;2023-02-01T02:42:12;19.92;;;3.65;;
41709;SDS011;59402;48.396;-4.472;2023-02-01T02:50:44;19.52;;;3.67;;
41709;SDS011;59402;48.396;-4.472;2023-02-01T02:53:38;25.52;;;3.88;;
41709;SDS011;59402;48.396;-4.472;2023-02-01T02:56:37;21.17;;;3.85;;
41709;SDS011;59402;48.396;-4.472;2023-02-01T02:59:22;16.67;;;3.83;;
41709;SDS011;59402;48.396;-4.472;2023-02-01T03:02:08;22.20;;;3.70;;
41709;SDS011;59402;48.396;-4.472;2023-02-01T03:04:53;20.27;;;3.67;;
41709;SDS011;59402;48.396;-4.472;2023-02-01T03:10:23;21.33;;;4.00;;
41709;SDS011;59402;48.396;-4.472;2023-02-01T03:12:53;19.92;;;3.42;;
41709;SDS011;59402;48.396;-4.472;2023-02-01T03:15:24;19.08;;;3.72;;
41709;SDS011;59402;48.396;-4.472;2023-02-01T03:17:55;23.30;;;4.60;;
41709;SDS011;59402;48.396;-4.472;2023-02-01T03:20:21;27.35;;;4.80;;
41709;SDS011;59402;48.396;-4.472;2023-02-01T03:22:47;22.58;;;4.68;;
41709;SDS011;59402;48.396;-4.472;2023-02-01T03:25:16;20.00;;;3.63;;
41709;SDS011;59402;48.396;-4.472;2023-02-01T03:28:00;24.70;;;4.75;;
41709;SDS011;59402;48.396;-4.472;2023-02-01T03:30:42;21.25;;;3.50;;
41709;SDS011;59402;48.396;-4.472;2023-02-01T03:33:13;21.13;;;4.07;;
41709;SDS011;59402;48.396;-4.472;2023-02-01T03:35:54;24.83;;;4.10;;
41709;SDS011;59402;48.396;-4.472;2023-02-01T03:38:39;26.23;;;4.30;;
41709;SDS011;59402;48.396;-4.472;2023-02-01T03:46:56;19.73;;;3.47;;
41709;SDS011;59402;48.396;-4.472;2023-02-01T03:49:33;24.00;;;4.60;;
41709;SDS011;59402;48.396;-4.472;2023-02-01T03:52:10;20.98;;;4.75;;
41709;SDS011;59402;48.396;-4.472;2023-02-01T03:54:41;21.38;;;4.15;;
41709;SDS011;59402;48.396;-4.472;2023-02-01T03:57:09;27.85;;;4.38;;
41709;SDS011;59402;48.396;-4.472;2023-02-01T03:59:38;24.15;;;4.03;;
41709;SDS011;59402;48.396;-4.472;2023-02-01T04:02:06;21.38;;;3.53;;
41709;SDS011;59402;48.396;-4.472;2023-02-01T04:04:32;21.77;;;4.32;;
41709;SDS011;59402;48.396;-4.472;2023-02-01T04:06:59;17.13;;;4.63;;
41709;SDS011;59402;48.396;-4.472;2023-02-01T04:09:25;26.88;;;4.22;;
41709;SDS011;59402;48.396;-4.472;2023-02-01T04:11:50;21.38;;;4.18;;
41709;SDS011;59402;48.396;-4.472;2023-02-01T04:14:16;23.02;;;4.45;;
41709;SDS011;59402;48.396;-4.472;2023-02-01T04:16:42;26.20;;;4.63;;
41709;SDS011;59402;48.396;-4.472;2023-02-01T04:19:08;19.58;;;3.80;;
41709;SDS011;59402;48.396;-4.472;2023-02-01T04:21:33;20.48;;;4.00;;
41709;SDS011;59402;48.396;-4.472;2023-02-01T04:23:59;28.80;;;4.65;;
41709;SDS011;59402;48.396;-4.472;2023-02-01T04:26:25;20.88;;;4.10;;
41709;SDS011;59402;48.396;-4.472;2023-02-01T04:28:51;21.70;;;4.13;;
41709;SDS011;59402;48.396;-4.472;2023-02-01T04:31:17;27.95;;;4.57;;
41709;SDS011;59402;48.396;-4.472;2023-02-01T04:33:54;21.30;;;4.47;;
41709;SDS011;59402;48.396;-4.472;2023-02-01T04:36:22;25.10;;;3.70;;
41709;SDS011;59402;48.396;-4.472;2023-02-01T04:38:51;22.23;;;3.92;;
41709;SDS011;59402;48.396;-4.472;2023-02-01T04:41:17;21.23;;;4.32;;
41709;SDS011;59402;48.396;-4.472;2023-02-01T04:43:47;21.50;;;3.97;;
41709;SDS011;59402;48.396;-4.472;2023-02-01T04:46:13;21.17;;;3.67;;
41709;SDS011;59402;48.396;-4.472;2023-02-01T04:48:39;14.38;;;2.88;;
41709;SDS011;59402;48.396;-4.472;2023-02-01T04:51:04;22.45;;;3.67;;
41709;SDS011;59402;48.396;-4.472;2023-02-01T04:53:30;21.83;;;3.75;;
41709;SDS011;59402;48.396;-4.472;2023-02-01T04:55:57;15.32;;;3.53;;
41709;SDS011;59402;48.396;-4.472;2023-02-01T04:58:22;20.83;;;3.63;;
41709;SDS011;59402;48.396;-4.472;2023-02-01T05:00:48;20.98;;;3.63;;
41709;SDS011;59402;48.396;-4.472;2023-02-01T05:03:14;17.55;;;3.65;;
41709;SDS011;59402;48.396;-4.472;2023-02-01T05:05:40;14.15;;;3.42;;
41709;SDS011;59402;48.396;-4.472;2023-02-01T05:08:06;19.55;;;3.30;;
41709;SDS011;59402;48.396;-4.472;2023-02-01T05:10:32;20.25;;;4.50;;
41709;SDS011;59402;48.396;-4.472;2023-02-01T05:12:57;24.50;;;4.05;;
41709;SDS011;59402;48.396;-4.472;2023-02-01T05:15:42;22.15;;;3.85;;
41709;SDS011;59402;48.396;-4.472;2023-02-01T05:18:08;25.20;;;4.38;;
41709;SDS011;59402;48.396;-4.472;2023-02-01T05:20:33;16.13;;;3.25;;
41709;SDS011;59402;48.396;-4.472;2023-02-01T05:22:59;23.90;;;3.92;;
41709;SDS011;59402;48.396;-4.472;2023-02-01T05:25:25;17.23;;;3.70;;
41709;SDS011;59402;48.396;-4.472;2023-02-01T05:27:51;21.60;;;4.03;;
41709;SDS011;59402;48.396;-4.472;2023-02-01T05:30:17;21.70;;;3.85;;
41709;SDS011;59402;48.396;-4.472;2023-02-01T05:32:43;27.30;;;3.83;;
41709;SDS011;59402;48.396;-4.472;2023-02-01T05:35:09;20.85;;;4.05;;
41709;SDS011;59402;48.396;-4.472;2023-02-01T05:37:35;17.98;;;3.80;;
41709;SDS011;59402;48.396;-4.472;2023-02-01T05:40:00;18.52;;;3.10;;
41709;SDS011;59402;48.396;-4.472;2023-02-01T05:42:26;26.13;;;3.78;;
41709;SDS011;59402;48.396;-4.472;2023-02-01T05:44:52;28.38;;;4.60;;
41709;SDS011;59402;48.396;-4.472;2023-02-01T05:47:17;19.83;;;4.10;;
41709;SDS011;59402;48.396;-4.472;2023-02-01T05:49:43;26.15;;;4.80;;
41709;SDS011;59402;48.396;-4.472;2023-02-01T05:52:09;20.15;;;4.60;;
41709;SDS011;59402;48.396;-4.472;2023-02-01T05:54:35;18.45;;;4.45;;
41709;SDS011;59402;48.396;-4.472;2023-02-01T05:57:00;20.08;;;4.55;;
41709;SDS011;59402;48.396;-4.472;2023-02-01T05:59:26;21.25;;;4.15;;
41709;SDS011;59402;48.396;-4.472;2023-02-01T06:01:52;26.08;;;4.70;;
41709;SDS011;59402;48.396;-4.472;2023-02-01T06:04:17;32.83;;;6.50;;
41709;SDS011;59402;48.396;-4.472;2023-02-01T06:06:43;23.25;;;5.05;;
41709;SDS011;59402;48.396;-4.472;2023-02-01T06:09:09;18.27;;;4.53;;
41709;SDS011;59402;48.396;-4.472;2023-02-01T06:11:34;21.48;;;3.78;;
41709;SDS011;59402;48.396;-4.472;2023-02-01T06:14:00;20.52;;;4.25;;
41709;SDS011;59402;48.396;-4.472;2023-02-01T06:16:26;24.92;;;4.43;;
41709;SDS011;59402;48.396;-4.472;2023-02-01T06:18:52;19.85;;;4.85;;
41709;SDS011;59402;48.396;-4.472;2023-02-01T06:21:18;21.02;;;5.40;;
41709;SDS011;59402;48.396;-4.472;2023-02-01T06:23:49;22.35;;;5.75;;
41709;SDS011;59402;48.396;-4.472;2023-02-01T06:26:19;18.40;;;4.68;;
41709;SDS011;59402;48.396;-4.472;2023-02-01T06:28:45;26.40;;;5.90;;
41709;SDS011;59402;48.396;-4.472;2023-02-01T06:31:10;27.33;;;5.97;;
41709;SDS011;59402;48.396;-4.472;2023-02-01T06:33:37;20.88;;;5.45;;
41709;SDS011;59402;48.396;-4.472;2023-02-01T06:36:04;23.33;;;4.45;;
41709;SDS011;59402;48.396;-4.472;2023-02-01T06:38:31;24.88;;;4.40;;
41709;SDS011;59402;48.396;-4.472;2023-02-01T06:40:59;22.70;;;3.90;;
41709;SDS011;59402;48.396;-4.472;2023-02-01T06:43:26;24.17;;;3.97;;
41709;SDS011;59402;48.396;-4.472;2023-02-01T06:45:53;20.08;;;4.07;;
41709;SDS011;59402;48.396;-4.472;2023-02-01T06:48:19;22.17;;;4.72;;
41709;SDS011;59402;48.396;-4.472;2023-02-01T06:50:44;19.05;;;3.42;;
41709;SDS011;59402;48.396;-4.472;2023-02-01T06:53:10;18.08;;;3.53;;
41709;SDS011;59402;48.396;-4.472;2023-02-01T06:55:36;23.52;;;4.63;;
41709;SDS011;59402;48.396;-4.472;2023-02-01T06:58:02;23.08;;;3.85;;
41709;SDS011;59402;48.396;-4.472;2023-02-01T07:00:28;28.80;;;4.15;;
41709;SDS011;59402;48.396;-4.472;2023-02-01T07:02:54;18.65;;;3.63;;
41709;SDS011;59402;48.396;-4.472;2023-02-01T07:05:22;16.58;;;4.50;;
41709;SDS011;59402;48.396;-4.472;2023-02-01T07:07:47;16.88;;;3.85;;
41709;SDS011;59402;48.396;-4.472;2023-02-01T07:10:13;20.70;;;4.70;;
41709;SDS011;59402;48.396;-4.472;2023-02-01T07:12:39;21.88;;;4.38;;
41709;SDS011;59402;48.396;-4.472;2023-02-01T07:15:05;21.77;;;4.57;;
41709;SDS011;59402;48.396;-4.472;2023-02-01T07:17:31;21.27;;;3.72;;
41709;SDS011;59402;48.396;-4.472;2023-02-01T07:19:57;23.73;;;4.10;;
41709;SDS011;59402;48.396;-4.472;2023-02-01T07:22:25;24.40;;;4.22;;
41709;SDS011;59402;48.396;-4.472;2023-02-01T07:24:51;24.05;;;4.90;;
41709;SDS011;59402;48.396;-4.472;2023-02-01T07:27:17;22.80;;;4.43;;
41709;SDS011;59402;48.396;-4.472;2023-02-01T07:29:42;20.85;;;4.60;;
41709;SDS011;59402;48.396;-4.472;2023-02-01T07:32:08;23.17;;;4.15;;
41709;SDS011;59402;48.396;-4.472;2023-02-01T07:34:34;23.00;;;3.95;;
41709;SDS011;59402;48.396;-4.472;2023-02-01T07:36:59;22.30;;;5.20;;
41709;SDS011;59402;48.396;-4.472;2023-02-01T07:39:25;25.42;;;4.65;;
41709;SDS011;59402;48.396;-4.472;2023-02-01T07:41:53;21.77;;;3.90;;
41709;SDS011;59402;48.396;-4.472;2023-02-01T07:44:19;19.27;;;3.90;;
41709;SDS011;59402;48.396;-4.472;2023-02-01T07:46:48;19.20;;;4.53;;
41709;SDS011;59402;48.396;-4.472;2023-02-01T07:49:14;18.98;;;4.15;;
41709;SDS011;59402;48.396;-4.472;2023-02-01T07:51:39;20.35;;;3.92;;
41709;SDS011;59402;48.396;-4.472;2023-02-01T07:54:05;23.17;;;4.57;;
41709;SDS011;59402;48.396;-4.472;2023-02-01T07:56:31;22.50;;;4.38;;
41709;SDS011;59402;48.396;-4.472;2023-02-01T07:58:57;19.23;;;4.03;;
41709;SDS011;59402;48.396;-4.472;2023-02-01T08:01:25;21.30;;;4.28;;
41709;SDS011;59402;48.396;-4.472;2023-02-01T08:03:56;26.70;;;4.68;;
41709;SDS011;59402;48.396;-4.472;2023-02-01T08:06:26;21.38;;;4.55;;
41709;SDS011;59402;48.396;-4.472;2023-02-01T08:08:53;24.90;;;4.30;;
41709;SDS011;59402;48.396;-4.472;2023-02-01T08:11:19;25.17;;;4.38;;
41709;SDS011;59402;48.396;-4.472;2023-02-01T08:13:45;25.55;;;4.50;;
41709;SDS011;59402;48.396;-4.472;2023-02-01T08:16:12;23.45;;;4.47;;
41709;SDS011;59402;48.396;-4.472;2023-02-01T08:18:39;25.13;;;4.13;;
41709;SDS011;59402;48.396;-4.472;2023-02-01T08:21:10;21.63;;;4.05;;
41709;SDS011;59402;48.396;-4.472;2023-02-01T08:23:38;21.13;;;3.97;;
41709;SDS011;59402;48.396;-4.472;2023-02-01T16:37:03;18.80;;;3.60;;
41709;SDS011;59402;48.396;-4.472;2023-02-01T16:39:29;18.13;;;3.40;;
41709;SDS011;59402;48.396;-4.472;2023-02-01T16:41:58;16.48;;;3.90;;
41709;SDS011;59402;48.396;-4.472;2023-02-01T16:44:24;20.63;;;3.63;;
41709;SDS011;59402;48.396;-4.472;2023-02-01T16:46:50;18.05;;;3.35;;
41709;SDS011;59402;48.396;-4.472;2023-02-01T16:49:25;19.02;;;3.88;;
41709;SDS011;59402;48.396;-4.472;2023-02-01T16:51:51;19.58;;;3.42;;
41709;SDS011;59402;48.396;-4.472;2023-02-01T16:54:20;18.42;;;3.67;;
41709;SDS011;59402;48.396;-4.472;2023-02-01T16:56:46;21.88;;;3.88;;
41709;SDS011;59402;48.396;-4.472;2023-02-01T16:59:12;18.80;;;3.72;;
41709;SDS011;59402;48.396;-4.472;2023-02-01T17:01:39;18.60;;;4.43;;
41709;SDS011;59402;48.396;-4.472;2023-02-01T17:04:07;17.33;;;3.67;;
41709;SDS011;59402;48.396;-4.472;2023-02-01T17:06:34;19.55;;;4.47;;
41709;SDS011;59402;48.396;-4.472;2023-02-01T17:11:28;16.13;;;3.65;;
41709;SDS011;59402;48.396;-4.472;2023-02-01T17:13:56;16.13;;;3.53;;
41709;SDS011;59402;48.396;-4.472;2023-02-01T17:18:55;21.58;;;4.55;;
41709;SDS011;59402;48.396;-4.472;2023-02-01T17:21:21;18.95;;;4.03;;
41709;SDS011;59402;48.396;-4.472;2023-02-01T17:23:47;14.70;;;4.57;;
41709;SDS011;59402;48.396;-4.472;2023-02-01T17:26:13;18.73;;;4.10;;
41709;SDS011;59402;48.396;-4.472;2023-02-01T17:28:39;19.08;;;3.80;;
41709;SDS011;59402;48.396;-4.472;2023-02-01T17:31:04;18.20;;;4.40;;
41709;SDS011;59402;48.396;-4.472;2023-02-01T17:33:34;20.67;;;4.18;;
41709;SDS011;59402;48.396;-4.472;2023-02-01T17:36:01;14.95;;;3.70;;
41709;SDS011;59402;48.396;-4.472;2023-02-01T17:38:28;18.55;;;3.78;;
41709;SDS011;59402;48.396;-4.472;2023-02-01T17:40:54;14.57;;;4.03;;
41709;SDS011;59402;48.396;-4.472;2023-02-01T17:43:20;22.88;;;5.70;;
41709;SDS011;59402;48.396;-4.472;2023-02-01T17:48:15;23.88;;;5.78;;
41709;SDS011;59402;48.396;-4.472;2023-02-01T17:50:41;24.45;;;5.57;;
41709;SDS011;59402;48.396;-4.472;2023-02-01T17:53:09;17.73;;;5.65;;
41709;SDS011;59402;48.396;-4.472;2023-02-01T17:58:02;25.23;;;5.63;;
41709;SDS011;59402;48.396;-4.472;2023-02-01T18:00:28;20.48;;;4.68;;
41709;SDS011;59402;48.396;-4.472;2023-02-01T18:02:53;20.63;;;4.95;;
41709;SDS011;59402;48.396;-4.472;2023-02-01T18:05:26;22.10;;;4.88;;
41709;SDS011;59402;48.396;-4.472;2023-02-01T18:07:54;17.40;;;5.35;;
41709;SDS011;59402;48.396;-4.472;2023-02-01T18:10:19;24.23;;;5.30;;
41709;SDS011;59402;48.396;-4.472;2023-02-01T18:12:45;29.55;;;6.70;;
41709;SDS011;59402;48.396;-4.472;2023-02-01T18:15:18;22.85;;;5.30;;
41709;SDS011;59402;48.396;-4.472;2023-02-01T18:17:46;14.90;;;4.90;;
41709;SDS011;59402;48.396;-4.472;2023-02-01T18:20:15;24.27;;;4.47;;
41709;SDS011;59402;48.396;-4.472;2023-02-01T18:22:43;18.35;;;4.85;;
41709;SDS011;59402;48.396;-4.472;2023-02-01T18:25:25;18.80;;;4.82;;
41709;SDS011;59402;48.396;-4.472;2023-02-01T18:27:54;22.70;;;4.63;;
41709;SDS011;59402;48.396;-4.472;2023-02-01T18:30:22;21.48;;;5.05;;
41709;SDS011;59402;48.396;-4.472;2023-02-01T18:32:49;20.95;;;5.47;;
41709;SDS011;59402;48.396;-4.472;2023-02-01T18:35:22;23.17;;;5.78;;
41709;SDS011;59402;48.396;-4.472;2023-02-01T18:37:49;21.00;;;5.50;;
41709;SDS011;59402;48.396;-4.472;2023-02-01T18:40:17;16.23;;;5.20;;
41709;SDS011;59402;48.396;-4.472;2023-02-01T18:42:44;19.95;;;5.80;;
41709;SDS011;59402;48.396;-4.472;2023-02-01T18:45:52;23.60;;;6.32;;
41709;SDS011;59402;48.396;-4.472;2023-02-01T18:48:04;20.17;;;6.50;;
41709;SDS011;59402;48.396;-4.472;2023-02-01T18:50:31;20.10;;;6.85;;
41709;SDS011;59402;48.396;-4.472;2023-02-01T18:52:59;26.85;;;7.10;;
41709;SDS011;59402;48.396;-4.472;2023-02-01T18:55:26;21.88;;;6.00;;
41709;SDS011;59402;48.396;-4.472;2023-02-01T18:57:53;23.50;;;7.47;;
41709;SDS011;59402;48.396;-4.472;2023-02-01T19:00:19;25.88;;;7.32;;
41709;SDS011;59402;48.396;-4.472;2023-02-01T19:02:46;26.45;;;8.73;;
41709;SDS011;59402;48.396;-4.472;2023-02-01T19:05:13;19.10;;;6.45;;
41709;SDS011;59402;48.396;-4.472;2023-02-01T19:07:39;21.77;;;5.20;;
41709;SDS011;59402;48.396;-4.472;2023-02-01T19:10:07;21.73;;;4.88;;
41709;SDS011;59402;48.396;-4.472;2023-02-01T19:12:35;20.70;;;5.22;;
41709;SDS011;59402;48.396;-4.472;2023-02-01T19:17:29;29.92;;;7.75;;
41709;SDS011;59402;48.396;-4.472;2023-02-01T19:19:55;24.75;;;6.40;;
41709;SDS011;59402;48.396;-4.472;2023-02-01T19:22:23;16.35;;;6.18;;
41709;SDS011;59402;48.396;-4.472;2023-02-01T19:24:49;23.00;;;6.53;;
41709;SDS011;59402;48.396;-4.472;2023-02-01T19:27:15;26.27;;;6.88;;
41709;SDS011;59402;48.396;-4.472;2023-02-01T19:29:41;21.88;;;6.45;;
41709;SDS011;59402;48.396;-4.472;2023-02-01T19:32:10;22.90;;;6.05;;
41709;SDS011;59402;48.396;-4.472;2023-02-01T19:34:36;19.10;;;6.38;;
41709;SDS011;59402;48.396;-4.472;2023-02-01T19:37:03;25.00;;;6.95;;
41709;SDS011;59402;48.396;-4.472;2023-02-01T19:39:30;21.48;;;6.57;;
41709;SDS011;59402;48.396;-4.472;2023-02-01T19:41:56;21.92;;;5.93;;
41709;SDS011;59402;48.396;-4.472;2023-02-01T19:44:23;22.17;;;6.67;;
41709;SDS011;59402;48.396;-4.472;2023-02-01T19:46:49;28.20;;;7.00;;
41709;SDS011;59402;48.396;-4.472;2023-02-01T19:49:15;23.25;;;6.90;;
41709;SDS011;59402;48.396;-4.472;2023-02-01T19:51:41;26.42;;;6.53;;
41709;SDS011;59402;48.396;-4.472;2023-02-01T19:54:09;21.50;;;6.00;;
41709;SDS011;59402;48.396;-4.472;2023-02-01T19:56:35;21.90;;;6.07;;
41709;SDS011;59402;48.396;-4.472;2023-02-01T19:59:02;28.95;;;6.10;;
41709;SDS011;59402;48.396;-4.472;2023-02-01T20:01:32;20.92;;;5.82;;
41709;SDS011;59402;48.396;-4.472;2023-02-01T20:03:58;18.58;;;5.63;;
41709;SDS011;59402;48.396;-4.472;2023-02-01T20:06:30;19.00;;;5.57;;
41709;SDS011;59402;48.396;-4.472;2023-02-01T20:08:57;21.55;;;6.25;;
41709;SDS011;59402;48.396;-4.472;2023-02-01T20:11:23;19.45;;;5.90;;
41709;SDS011;59402;48.396;-4.472;2023-02-01T20:13:53;19.25;;;6.47;;
41709;SDS011;59402;48.396;-4.472;2023-02-01T20:16:20;23.35;;;5.95;;
41709;SDS011;59402;48.396;-4.472;2023-02-01T20:18:46;21.77;;;6.82;;
41709;SDS011;59402;48.396;-4.472;2023-02-01T20:21:12;25.13;;;6.28;;
41709;SDS011;59402;48.396;-4.472;2023-02-01T20:23:39;21.27;;;5.80;;
41709;SDS011;59402;48.396;-4.472;2023-02-01T20:26:05;24.40;;;6.13;;
41709;SDS011;59402;48.396;-4.472;2023-02-01T20:28:33;21.95;;;5.70;;
41709;SDS011;59402;48.396;-4.472;2023-02-01T20:30:59;23.02;;;6.55;;
41709;SDS011;59402;48.396;-4.472;2023-02-01T20:33:26;18.67;;;5.57;;
41709;SDS011;59402;48.396;-4.472;2023-02-01T20:35:53;21.57;;;4.77;;
41709;SDS011;59402;48.396;-4.472;2023-02-01T20:38:19;21.08;;;5.53;;
41709;SDS011;59402;48.396;-4.472;2023-02-01T20:40:45;20.65;;;4.88;;
41709;SDS011;59402;48.396;-4.472;2023-02-01T20:43:11;18.05;;;5.57;;
41709;SDS011;59402;48.396;-4.472;2023-02-01T20:45:41;18.15;;;4.20;;
41709;SDS011;59402;48.396;-4.472;2023-02-01T20:48:07;19.08;;;4.97;;
41709;SDS011;59402;48.396;-4.472;2023-02-01T20:50:34;13.13;;;4.03;;
41709;SDS011;59402;48.396;-4.472;2023-02-01T20:53:00;14.27;;;4.00;;
41709;SDS011;59402;48.396;-4.472;2023-02-01T20:55:27;20.98;;;5.18;;
41709;SDS011;59402;48.396;-4.472;2023-02-01T20:57:53;15.13;;;3.97;;
41709;SDS011;59402;48.396;-4.472;2023-02-01T21:00:19;13.32;;;4.40;;
41709;SDS011;59402;48.396;-4.472;2023-02-01T21:02:47;18.65;;;4.30;;
41709;SDS011;59402;48.396;-4.472;2023-02-01T21:05:16;16.48;;;4.45;;
41709;SDS011;59402;48.396;-4.472;2023-02-01T21:07:42;14.45;;;4.20;;
41709;SDS011;59402;48.396;-4.472;2023-02-01T21:10:08;21.02;;;4.32;;
41709;SDS011;59402;48.396;-4.472;2023-02-01T21:12:34;15.50;;;3.13;;
41709;SDS011;59402;48.396;-4.472;2023-02-01T21:15:00;19.65;;;4.55;;
41709;SDS011;59402;48.396;-4.472;2023-02-01T21:17:28;14.70;;;5.18;;
41709;SDS011;59402;48.396;-4.472;2023-02-01T21:19:54;14.48;;;4.10;;
41709;SDS011;59402;48.396;-4.472;2023-02-01T21:22:20;17.90;;;4.18;;
41709;SDS011;59402;48.396;-4.472;2023-02-01T21:24:46;12.57;;;3.83;;
41709;SDS011;59402;48.396;-4.472;2023-02-01T21:27:12;16.08;;;3.90;;
41709;SDS011;59402;48.396;-4.472;2023-02-01T21:29:38;15.75;;;4.55;;
41709;SDS011;59402;48.396;-4.472;2023-02-01T21:32:04;16.63;;;3.53;;
41709;SDS011;59402;48.396;-4.472;2023-02-01T21:34:31;17.73;;;4.57;;
41709;SDS011;59402;48.396;-4.472;2023-02-01T21:36:57;15.82;;;3.72;;
41709;SDS011;59402;48.396;-4.472;2023-02-01T21:39:23;15.45;;;3.83;;
41709;SDS011;59402;48.396;-4.472;2023-02-01T21:44:35;19.48;;;4.03;;
41709;SDS011;59402;48.396;-4.472;2023-02-01T21:47:01;20.23;;;4.32;;
41709;SDS011;59402;48.396;-4.472;2023-02-01T21:49:27;11.30;;;3.30;;
41709;SDS011;59402;48.396;-4.472;2023-02-01T21:51:53;16.83;;;3.95;;
41709;SDS011;59402;48.396;-4.472;2023-02-01T21:54:19;14.70;;;3.97;;
41709;SDS011;59402;48.396;-4.472;2023-02-01T21:56:45;18.52;;;4.28;;
41709;SDS011;59402;48.396;-4.472;2023-02-01T21:59:11;22.90;;;4.53;;
41709;SDS011;59402;48.396;-4.472;2023-02-01T22:01:38;17.08;;;3.22;;
41709;SDS011;59402;48.396;-4.472;2023-02-01T22:04:04;19.00;;;3.33;;
41709;SDS011;59402;48.396;-4.472;2023-02-01T22:06:32;15.75;;;3.58;;
41709;SDS011;59402;48.396;-4.472;2023-02-01T22:09:02;16.13;;;3.28;;
41709;SDS011;59402;48.396;-4.472;2023-02-01T22:11:29;21.90;;;4.13;;
41709;SDS011;59402;48.396;-4.472;2023-02-01T22:13:55;15.30;;;3.25;;
41709;SDS011;59402;48.396;-4.472;2023-02-01T22:16:21;13.85;;;3.05;;
41709;SDS011;59402;48.396;-4.472;2023-02-01T22:18:48;15.38;;;3.42;;
41709;SDS011;59402;48.396;-4.472;2023-02-01T22:21:14;13.37;;;3.00;;
41709;SDS011;59402;48.396;-4.472;2023-02-01T22:23:40;16.38;;;2.92;;
41709;SDS011;59402;48.396;-4.472;2023-02-01T22:26:12;12.30;;;3.00;;
41709;SDS011;59402;48.396;-4.472;2023-02-01T22:28:38;13.57;;;3.00;;
41709;SDS011;59402;48.396;-4.472;2023-02-01T22:31:04;10.95;;;2.50;;
41709;SDS011;59402;48.396;-4.472;2023-02-01T22:33:31;18.57;;;3.07;;
41709;SDS011;59402;48.396;-4.472;2023-02-01T22:35:58;15.90;;;2.70;;
41709;SDS011;59402;48.396;-4.472;2023-02-01T22:38:24;9.35;;;2.83;;
41709;SDS011;59402;48.396;-4.472;2023-02-01T22:40:58;14.00;;;3.35;;
41709;SDS011;59402;48.396;-4.472;2023-02-01T22:43:25;12.82;;;2.95;;
41709;SDS011;59402;48.396;-4.472;2023-02-01T22:45:51;15.52;;;3.08;;
41709;SDS011;59402;48.396;-4.472;2023-02-01T22:48:17;13.27;;;3.00;;
41709;SDS011;59402;48.396;-4.472;2023-02-01T22:50:43;14.23;;;2.75;;
41709;SDS011;59402;48.396;-4.472;2023-02-01T22:53:09;11.43;;;2.63;;
41709;SDS011;59402;48.396;-4.472;2023-02-01T22:55:35;13.65;;;3.08;;
41709;SDS011;59402;48.396;-4.472;2023-02-01T22:58:01;16.55;;;3.28;;
41709;SDS011;59402;48.396;-4.472;2023-02-01T23:00:27;11.57;;;2.50;;
41709;SDS011;59402;48.396;-4.472;2023-02-01T23:02:53;10.85;;;3.33;;
41709;SDS011;59402;48.396;-4.472;2023-02-01T23:05:19;14.13;;;3.33;;
41709;SDS011;59402;48.396;-4.472;2023-02-01T23:07:46;20.40;;;3.30;;
41709;SDS011;59402;48.396;-4.472;2023-02-01T23:10:13;15.43;;;2.78;;
41709;SDS011;59402;48.396;-4.472;2023-02-01T23:12:41;14.18;;;3.22;;
41709;SDS011;59402;48.396;-4.472;2023-02-01T23:15:07;16.70;;;3.00;;
41709;SDS011;59402;48.396;-4.472;2023-02-01T23:17:33;15.20;;;2.97;;
41709;SDS011;59402;48.396;-4.472;2023-02-01T23:20:00;13.88;;;2.55;;
41709;SDS011;59402;48.396;-4.472;2023-02-01T23:22:26;18.17;;;3.00;;
41709;SDS011;59402;48.396;-4.472;2023-02-01T23:24:52;14.98;;;3.05;;
41709;SDS011;59402;48.396;-4.472;2023-02-01T23:27:18;14.93;;;2.95;;
41709;SDS011;59402;48.396;-4.472;2023-02-01T23:29:43;14.40;;;3.08;;